Time;durP1;ratioP1;P1;durP2;ratioP2;P2;SDS_P1;SDS_P2;PMS_P1;PMS_P2;Temp;Humidity;BMP_temperature;BMP_pressure;BME280_temperature;BME280_humidity;BME280_pressure;Samples;Min_cycle;Max_cycle;Signal;HPM_P1;HPM_P2
2022/05/19 00:01:08;;;;;;;3.45;2.92;;;21.00;99.90;;;;;;5060135;28;20214;-77
2022/05/19 00:03:39;;;;;;;3.97;3.42;;;21.00;99.90;;;;;;5057811;28;20195;-76
2022/05/19 00:06:08;;;;;;;6.05;3.38;;;21.00;99.90;;;;;;5057938;28;20344;-78
2022/05/19 00:08:36;;;;;;;6.35;4.20;;;21.00;99.90;;;;;;5054370;28;20225;-77
2022/05/19 00:11:05;;;;;;;4.32;3.42;;;21.00;99.90;;;;;;5060888;28;20225;-78
2022/05/19 00:13:32;;;;;;;4.53;3.42;;;21.00;99.90;;;;;;5057692;28;20194;-77
2022/05/19 00:15:59;;;;;;;4.97;3.47;;;21.00;99.90;;;;;;5060018;28;20226;-77
2022/05/19 00:18:27;;;;;;;3.78;3.28;;;21.00;99.90;;;;;;5056467;28;20250;-77
2022/05/19 00:20:55;;;;;;;5.07;3.70;;;21.00;99.90;;;;;;5057098;28;20229;-77
2022/05/19 00:23:23;;;;;;;5.32;4.18;;;20.90;99.90;;;;;;5075605;28;20189;-77
2022/05/19 00:25:50;;;;;;;4.28;2.92;;;21.00;99.90;;;;;;5054650;28;20279;-76
2022/05/19 00:28:17;;;;;;;6.38;3.85;;;21.00;99.90;;;;;;5060034;28;20218;-78
2022/05/19 00:30:44;;;;;;;5.82;3.67;;;21.00;99.90;;;;;;5054616;28;20628;-77
2022/05/19 00:33:12;;;;;;;3.20;2.90;;;20.90;99.90;;;;;;5061627;28;20206;-77
2022/05/19 00:35:41;;;;;;;5.80;3.72;;;20.90;99.90;;;;;;5057770;28;20770;-77
2022/05/19 00:38:10;;;;;;;5.57;3.70;;;20.90;99.90;;;;;;5061568;28;20222;-77
2022/05/19 00:40:37;;;;;;;3.35;3.10;;;20.90;99.90;;;;;;5058504;28;20210;-78
2022/05/19 00:43:05;;;;;;;10.48;4.10;;;20.90;99.90;;;;;;5056037;28;20603;-78
2022/05/19 00:45:42;;;;;;;5.38;3.42;;;20.90;99.90;;;;;;5059491;28;20218;-77
2022/05/19 00:48:16;;;;;;;3.60;3.30;;;20.90;99.90;;;;;;5054644;28;20244;-77
2022/05/19 00:50:48;;;;;;;3.08;2.88;;;20.90;99.90;;;;;;5060117;28;20665;-77
2022/05/19 00:53:35;;;;;;;6.15;3.60;;;20.90;99.90;;;;;;5058012;28;20202;-77
2022/05/19 00:56:09;;;;;;;3.58;3.08;;;20.90;99.90;;;;;;5054634;28;20218;-77
2022/05/19 00:58:40;;;;;;;4.10;3.35;;;20.90;99.90;;;;;;5059339;28;20226;-78
2022/05/19 01:01:07;;;;;;;6.53;3.60;;;20.80;99.90;;;;;;5057514;28;20225;-77
2022/05/19 01:03:41;;;;;;;3.60;3.30;;;20.80;99.90;;;;;;5055525;28;20203;-76
2022/05/19 01:06:13;;;;;;;5.05;2.85;;;20.80;99.90;;;;;;5059529;28;20237;-76
2022/05/19 01:08:46;;;;;;;3.65;3.10;;;20.80;99.90;;;;;;5055979;28;20242;-77
2022/05/19 01:11:15;;;;;;;3.97;2.90;;;20.80;99.90;;;;;;5057140;28;20227;-77
2022/05/19 01:13:43;;;;;;;3.50;3.20;;;20.80;99.90;;;;;;5055427;28;20206;-76
2022/05/19 01:16:11;;;;;;;3.40;3.10;;;20.80;99.90;;;;;;5071569;28;20688;-77
2022/05/19 01:18:39;;;;;;;4.65;3.10;;;20.80;99.90;;;;;;5056128;28;20227;-77
2022/05/19 01:21:08;;;;;;;3.30;3.00;;;20.80;99.90;;;;;;5055918;28;20222;-77
2022/05/19 01:23:49;;;;;;;4.00;2.75;;;20.80;99.90;;;;;;5054585;28;20203;-76
2022/05/19 01:26:24;;;;;;;3.33;3.05;;;20.70;99.90;;;;;;5059286;28;20279;-77
2022/05/19 01:28:53;;;;;;;3.33;2.63;;;20.70;99.90;;;;;;5057024;28;20744;-77
2022/05/19 01:31:31;;;;;;;3.92;2.70;;;20.80;99.90;;;;;;5058237;28;20313;-78
2022/05/19 01:33:59;;;;;;;3.67;3.30;;;20.80;99.90;;;;;;5053068;28;20203;-77
2022/05/19 01:36:26;;;;;;;6.10;3.50;;;20.80;99.90;;;;;;5053196;28;20648;-77
2022/05/19 01:39:00;;;;;;;3.92;3.15;;;20.70;99.90;;;;;;5057149;28;20217;-77
2022/05/19 01:41:36;;;;;;;6.20;3.67;;;20.80;99.90;;;;;;5052569;28;20230;-77
2022/05/19 01:44:19;;;;;;;5.07;3.25;;;20.70;99.90;;;;;;5056551;28;20190;-77
2022/05/19 01:46:51;;;;;;;4.78;3.22;;;20.70;99.90;;;;;;5062121;28;20214;-77
2022/05/19 01:49:25;;;;;;;6.55;3.50;;;20.70;99.90;;;;;;5058389;28;20222;-78
2022/05/19 01:51:56;;;;;;;4.93;3.67;;;20.60;99.90;;;;;;5058440;28;20493;-76
2022/05/19 01:54:31;;;;;;;4.25;3.05;;;20.60;99.90;;;;;;5058115;28;20229;-75
2022/05/19 01:57:05;;;;;;;4.45;3.22;;;20.60;99.90;;;;;;5059201;28;20221;-77
2022/05/19 01:59:41;;;;;;;3.22;2.88;;;20.60;99.90;;;;;;5060284;28;20218;-76
2022/05/19 02:02:14;;;;;;;3.95;2.55;;;20.60;99.90;;;;;;5067331;28;20271;-76
2022/05/19 02:04:50;;;;;;;5.13;3.70;;;20.60;99.90;;;;;;5059363;28;20293;-77
2022/05/19 02:07:18;;;;;;;5.10;3.28;;;20.60;99.90;;;;;;5072669;28;20226;-77
2022/05/19 02:09:51;;;;;;;3.30;2.92;;;20.50;99.90;;;;;;5067594;28;20225;-77
2022/05/19 02:12:19;;;;;;;4.63;3.20;;;20.50;99.90;;;;;;5061744;28;20663;-76
2022/05/19 02:14:52;;;;;;;3.65;3.28;;;20.50;99.90;;;;;;5060992;28;20203;-77
2022/05/19 02:17:24;;;;;;;4.30;3.30;;;20.50;99.90;;;;;;5062340;28;20611;-75
2022/05/19 02:19:55;;;;;;;3.35;3.03;;;20.40;99.90;;;;;;5061862;28;20221;-77
2022/05/19 02:22:26;;;;;;;4.90;3.80;;;20.40;99.90;;;;;;5063030;28;20210;-77
2022/05/19 02:24:59;;;;;;;5.65;3.75;;;20.40;99.90;;;;;;5062973;28;20241;-77
2022/05/19 02:27:37;;;;;;;6.40;2.85;;;20.40;99.90;;;;;;5063293;28;20225;-77
2022/05/19 02:30:09;;;;;;;7.03;3.50;;;20.40;99.90;;;;;;5061508;28;20215;-77
2022/05/19 02:32:37;;;;;;;3.80;3.50;;;20.50;99.90;;;;;;5065505;28;20210;-77
2022/05/19 02:35:04;;;;;;;3.67;3.38;;;20.50;99.90;;;;;;5061148;28;20198;-77
2022/05/19 02:37:31;;;;;;;3.35;3.05;;;20.50;99.90;;;;;;5064666;28;20241;-77
2022/05/19 02:39:59;;;;;;;4.22;3.25;;;20.50;99.90;;;;;;5058764;28;20218;-77
2022/05/19 02:42:26;;;;;;;6.20;3.63;;;20.40;99.90;;;;;;5062037;28;20292;-77
2022/05/19 02:44:53;;;;;;;3.40;3.10;;;20.40;99.90;;;;;;5065242;28;20203;-77
2022/05/19 02:47:22;;;;;;;4.45;3.85;;;20.40;99.90;;;;;;5062564;28;20217;-76
2022/05/19 02:49:49;;;;;;;4.30;3.90;;;20.40;99.90;;;;;;5061008;28;20266;-76
2022/05/19 02:52:16;;;;;;;3.92;3.33;;;20.40;99.90;;;;;;5057389;28;20624;-76
2022/05/19 02:54:43;;;;;;;4.45;3.70;;;20.40;99.90;;;;;;5062490;28;20662;-77
2022/05/19 02:57:11;;;;;;;3.70;2.92;;;20.40;99.90;;;;;;5059446;28;20268;-76
2022/05/19 02:59:38;;;;;;;5.00;3.28;;;20.40;99.90;;;;;;5071125;28;20214;-78
2022/05/19 03:02:05;;;;;;;4.30;3.63;;;20.40;99.90;;;;;;5064657;28;20222;-77
2022/05/19 03:04:33;;;;;;;5.65;3.53;;;20.30;99.90;;;;;;5063699;28;20198;-76
2022/05/19 03:07:00;;;;;;;4.35;3.72;;;20.30;99.90;;;;;;5060794;28;20211;-77
2022/05/19 03:09:28;;;;;;;7.72;3.67;;;20.40;99.90;;;;;;5062120;28;20253;-76
2022/05/19 03:11:55;;;;;;;3.15;2.85;;;20.40;99.90;;;;;;5059798;28;20877;-77
2022/05/19 03:14:22;;;;;;;3.60;2.70;;;20.40;99.90;;;;;;5060934;28;20259;-76
2022/05/19 03:16:49;;;;;;;3.50;2.83;;;20.30;99.90;;;;;;5060000;28;20214;-77
2022/05/19 03:19:16;;;;;;;2.80;2.55;;;20.30;99.90;;;;;;5062264;28;20223;-77
2022/05/19 03:21:45;;;;;;;2.75;2.53;;;20.20;99.90;;;;;;5059383;28;20229;-76
2022/05/19 03:24:12;;;;;;;3.22;2.30;;;20.10;99.90;;;;;;5056291;28;20562;-76
2022/05/19 03:26:39;;;;;;;3.30;2.83;;;20.10;99.90;;;;;;5060571;28;20214;-77
2022/05/19 03:29:06;;;;;;;2.97;2.60;;;20.10;99.90;;;;;;5063123;28;20300;-77
2022/05/19 03:31:35;;;;;;;4.20;3.00;;;20.10;99.90;;;;;;5058242;28;20240;-77
2022/05/19 03:34:02;;;;;;;5.68;3.97;;;20.10;99.90;;;;;;5055737;28;20199;-77
2022/05/19 03:36:30;;;;;;;3.22;2.92;;;20.20;99.90;;;;;;5062313;28;20703;-76
2022/05/19 03:38:58;;;;;;;3.45;2.70;;;20.20;99.90;;;;;;5060762;28;20305;-77
2022/05/19 03:41:25;;;;;;;5.32;3.75;;;20.20;99.90;;;;;;5060184;28;20217;-76
2022/05/19 03:43:52;;;;;;;4.68;3.60;;;20.10;99.90;;;;;;5064693;28;20194;-76
2022/05/19 03:46:19;;;;;;;5.32;3.45;;;20.20;99.90;;;;;;5061668;28;20229;-76
2022/05/19 03:48:47;;;;;;;4.28;3.45;;;20.20;99.90;;;;;;5064487;28;20704;-77
2022/05/19 03:51:22;;;;;;;4.45;2.92;;;20.30;99.90;;;;;;5060316;28;20667;-76
2022/05/19 03:53:49;;;;;;;4.43;3.15;;;20.20;99.90;;;;;;5071134;28;20198;-76
2022/05/19 03:56:20;;;;;;;6.38;3.72;;;20.20;99.90;;;;;;5061918;28;20712;-77
2022/05/19 03:58:48;;;;;;;4.05;2.78;;;20.20;99.90;;;;;;5060538;28;20227;-78
2022/05/19 04:01:15;;;;;;;3.38;3.08;;;20.20;99.90;;;;;;5063805;28;20220;-76
2022/05/19 04:03:42;;;;;;;3.90;3.00;;;20.20;99.90;;;;;;5063813;28;20201;-76
2022/05/19 04:06:10;;;;;;;2.95;2.63;;;20.10;99.90;;;;;;5059200;28;20229;-77
2022/05/19 04:08:37;;;;;;;3.90;2.80;;;19.90;99.90;;;;;;5061253;28;20782;-78
2022/05/19 04:11:04;;;;;;;5.57;2.92;;;19.70;99.90;;;;;;5065197;28;20286;-76
2022/05/19 04:13:33;;;;;;;2.92;2.55;;;19.50;99.90;;;;;;5060842;28;20726;-77
2022/05/19 04:16:00;;;;;;;5.03;2.53;;;19.40;99.90;;;;;;5064105;28;20222;-77
2022/05/19 04:18:27;;;;;;;3.58;2.40;;;19.20;99.90;;;;;;5060125;28;20236;-77
2022/05/19 04:20:54;;;;;;;2.75;2.10;;;19.10;99.90;;;;;;5066278;28;20191;-77
2022/05/19 04:23:21;;;;;;;2.35;2.15;;;19.10;99.90;;;;;;5059055;28;20194;-77
2022/05/19 04:25:49;;;;;;;4.88;2.20;;;19.10;99.90;;;;;;5057287;28;20433;-77
2022/05/19 04:28:16;;;;;;;2.45;2.25;;;19.00;99.90;;;;;;5061229;28;20225;-77
2022/05/19 04:30:45;;;;;;;2.13;1.90;;;19.00;99.90;;;;;;5060870;28;20715;-77
2022/05/19 04:33:12;;;;;;;4.28;2.70;;;19.00;99.90;;;;;;5063551;28;20616;-77
2022/05/19 04:35:40;;;;;;;3.17;2.33;;;19.00;99.90;;;;;;5059889;28;20198;-77
2022/05/19 04:38:09;;;;;;;2.30;2.10;;;19.00;99.90;;;;;;5057077;28;20617;-76
2022/05/19 04:40:38;;;;;;;2.05;1.75;;;19.00;99.90;;;;;;5063732;28;20206;-76
2022/05/19 04:43:05;;;;;;;2.20;2.00;;;19.10;99.90;;;;;;5059865;28;20309;-76
2022/05/19 04:45:32;;;;;;;2.60;1.85;;;19.10;99.90;;;;;;5076536;28;21011;-76
2022/05/19 04:48:01;;;;;;;1.90;1.80;;;19.20;99.90;;;;;;5056225;28;20219;-76
2022/05/19 04:50:29;;;;;;;2.35;1.92;;;19.20;99.90;;;;;;5062721;28;20205;-77
2022/05/19 04:52:58;;;;;;;2.65;2.15;;;19.10;99.90;;;;;;5055145;28;20625;-76
2022/05/19 04:55:25;;;;;;;2.83;2.10;;;19.10;99.90;;;;;;5058072;28;20700;-77
2022/05/19 04:57:53;;;;;;;3.00;2.20;;;19.10;99.90;;;;;;5059061;28;20271;-77
2022/05/19 05:00:20;;;;;;;2.50;1.90;;;19.10;99.90;;;;;;5056549;28;20229;-77
2022/05/19 05:02:48;;;;;;;1.65;1.55;;;19.20;99.90;;;;;;5057702;28;20219;-76
2022/05/19 05:05:17;;;;;;;1.73;1.63;;;19.40;99.90;;;;;;5061781;28;20221;-76
2022/05/19 05:07:44;;;;;;;1.70;1.60;;;19.60;99.90;;;;;;5060193;28;20215;-77
2022/05/19 05:10:11;;;;;;;1.88;1.77;;;19.70;99.90;;;;;;5059410;28;20210;-76
2022/05/19 05:12:39;;;;;;;1.95;1.60;;;19.60;99.90;;;;;;5061835;28;20636;-77
2022/05/19 05:15:07;;;;;;;1.50;1.40;;;19.70;99.90;;;;;;5056617;28;20267;-77
2022/05/19 05:17:34;;;;;;;1.92;1.77;;;19.70;99.90;;;;;;5061021;28;20235;-77
2022/05/19 05:20:03;;;;;;;1.63;1.50;;;19.70;99.90;;;;;;5061548;28;20225;-77
2022/05/19 05:22:34;;;;;;;2.20;2.00;;;19.60;99.90;;;;;;5065000;28;20221;-77
2022/05/19 05:25:01;;;;;;;1.80;1.70;;;19.60;99.90;;;;;;5063781;28;20664;-78
2022/05/19 05:27:28;;;;;;;3.15;2.17;;;19.50;99.90;;;;;;5061814;28;20225;-77
2022/05/19 05:29:55;;;;;;;1.80;1.70;;;19.70;99.90;;;;;;5060405;28;20218;-77
2022/05/19 05:32:23;;;;;;;4.60;1.90;;;19.90;99.90;;;;;;5059543;28;20273;-77
2022/05/19 05:34:50;;;;;;;3.00;1.88;;;20.20;99.90;;;;;;5060386;28;20206;-77
2022/05/19 05:37:17;;;;;;;7.63;2.13;;;20.50;99.90;;;;;;5075037;28;20210;-77
2022/05/19 05:39:45;;;;;;;5.43;2.20;;;20.90;99.90;;;;;;5068736;28;20280;-77
2022/05/19 05:42:12;;;;;;;3.00;1.98;;;21.20;99.90;;;;;;5061421;28;20848;-76
2022/05/19 05:44:39;;;;;;;2.08;1.80;;;21.40;99.90;;;;;;5061451;28;20199;-76
2022/05/19 05:47:06;;;;;;;4.80;2.40;;;21.50;99.90;;;;;;5060255;28;20609;-76
2022/05/19 05:49:33;;;;;;;2.80;2.28;;;21.50;99.90;;;;;;5060229;28;20218;-77
2022/05/19 05:52:00;;;;;;;2.10;1.88;;;21.50;99.90;;;;;;5061188;28;20218;-77
2022/05/19 05:54:28;;;;;;;2.20;2.00;;;21.40;99.90;;;;;;5061921;28;20199;-77
2022/05/19 05:56:56;;;;;;;3.13;2.17;;;21.40;99.90;;;;;;5064979;28;20210;-77
2022/05/19 05:59:23;;;;;;;1.83;1.73;;;21.30;99.90;;;;;;5061307;28;20249;-77
2022/05/19 06:01:51;;;;;;;2.65;1.75;;;21.20;99.90;;;;;;5064484;28;20217;-77
2022/05/19 06:04:18;;;;;;;2.63;2.17;;;21.20;99.90;;;;;;5061434;28;20241;-76
2022/05/19 06:06:46;;;;;;;2.53;2.00;;;21.10;99.90;;;;;;5064130;28;20221;-76
2022/05/19 06:09:13;;;;;;;2.30;2.10;;;21.00;99.90;;;;;;5064999;28;20228;-77
2022/05/19 06:11:41;;;;;;;2.55;2.20;;;20.80;99.90;;;;;;5063879;28;20218;-77
2022/05/19 06:14:10;;;;;;;2.50;1.95;;;20.60;99.90;;;;;;5063527;28;20202;-78
2022/05/19 06:16:37;;;;;;;2.13;1.73;;;20.60;99.90;;;;;;5063989;28;20244;-77
2022/05/19 06:19:05;;;;;;;2.55;2.35;;;20.70;99.90;;;;;;5066037;28;20233;-77
2022/05/19 06:21:36;;;;;;;7.50;2.15;;;20.60;99.90;;;;;;5059777;28;20758;-78
2022/05/19 06:24:08;;;;;;;2.95;1.98;;;20.70;99.90;;;;;;5065855;28;20198;-78
2022/05/19 06:26:35;;;;;;;3.65;2.05;;;20.70;99.90;;;;;;5064307;28;20218;-77
2022/05/19 06:29:02;;;;;;;1.80;1.70;;;20.70;99.90;;;;;;5067896;28;20277;-78
2022/05/19 06:31:32;;;;;;;3.25;2.00;;;20.80;99.90;;;;;;5069487;28;20234;-77
2022/05/19 06:33:59;;;;;;;4.03;2.13;;;21.00;99.90;;;;;;5058298;28;20282;-77
2022/05/19 06:36:27;;;;;;;2.20;2.00;;;21.10;99.90;;;;;;5063102;28;22418;-78
2022/05/19 06:38:54;;;;;;;2.38;2.03;;;21.20;99.90;;;;;;5067641;28;20214;-78
2022/05/19 06:44:06;;;;;;;1.75;1.65;;;21.60;99.90;;;;;;5067300;28;20201;-81
2022/05/19 06:46:34;;;;;;;1.90;1.75;;;22.00;99.90;;;;;;5065605;28;20226;-80
2022/05/19 06:49:04;;;;;;;2.95;1.85;;;22.20;99.90;;;;;;5071221;28;20222;-78
2022/05/19 06:51:31;;;;;;;2.53;2.20;;;22.20;99.90;;;;;;5060334;28;20245;-78
2022/05/19 06:53:58;;;;;;;2.72;1.90;;;22.10;99.90;;;;;;5064618;28;20198;-77
2022/05/19 06:56:26;;;;;;;3.13;2.17;;;22.10;99.90;;;;;;5061355;28;20198;-78
2022/05/19 06:58:53;;;;;;;3.65;1.92;;;22.10;99.90;;;;;;5065141;28;20222;-79
2022/05/19 07:01:20;;;;;;;2.35;2.15;;;22.20;99.90;;;;;;5060037;28;20267;-78
2022/05/19 07:03:49;;;;;;;3.67;2.13;;;22.20;99.90;;;;;;5064765;28;20811;-79
2022/05/19 07:06:16;;;;;;;5.68;3.05;;;22.50;99.90;;;;;;5060622;28;20657;-78
2022/05/19 07:08:43;;;;;;;2.25;2.05;;;22.50;99.90;;;;;;5065666;28;20463;-77
2022/05/19 07:11:24;;;;;;;6.35;2.55;;;22.70;99.90;;;;;;5059801;28;20290;-78
2022/05/19 07:13:52;;;;;;;2.53;2.33;;;22.90;99.90;;;;;;5061487;28;20229;-77
2022/05/19 07:16:19;;;;;;;3.15;2.72;;;22.70;99.90;;;;;;5066834;28;20289;-78
2022/05/19 07:18:48;;;;;;;3.08;2.60;;;22.70;99.90;;;;;;5060365;28;20328;-77
2022/05/19 07:21:16;;;;;;;3.92;2.80;;;22.70;99.90;;;;;;5065508;28;20198;-77
2022/05/19 07:23:43;;;;;;;4.45;2.30;;;23.00;99.90;;;;;;5067301;28;20215;-77
2022/05/19 07:26:10;;;;;;;3.53;2.45;;;23.20;99.90;;;;;;5060618;28;20263;-76
2022/05/19 07:28:37;;;;;;;3.63;2.80;;;23.30;99.90;;;;;;5064391;28;20229;-77
2022/05/19 07:31:04;;;;;;;2.67;2.47;;;23.30;99.90;;;;;;5064110;28;20202;-77
2022/05/19 07:33:36;;;;;;;2.95;2.30;;;23.50;99.90;;;;;;5063193;28;20214;-79
2022/05/19 07:36:08;;;;;;;7.05;2.60;;;23.40;99.90;;;;;;5057515;28;20199;-77
2022/05/19 07:38:35;;;;;;;2.35;2.15;;;23.40;99.90;;;;;;5059638;28;20296;-77
2022/05/19 07:41:03;;;;;;;2.75;2.47;;;23.50;99.90;;;;;;5059837;28;20190;-76
2022/05/19 07:43:37;;;;;;;2.85;2.38;;;23.50;99.90;;;;;;5058311;28;20211;-75
2022/05/19 07:46:05;;;;;;;2.60;2.40;;;23.50;99.90;;;;;;5059963;28;20627;-76
2022/05/19 07:48:32;;;;;;;4.82;2.65;;;23.50;99.90;;;;;;5060103;28;20264;-76
2022/05/19 07:50:59;;;;;;;2.88;2.53;;;23.30;99.90;;;;;;5063371;28;20252;-76
2022/05/19 07:53:28;;;;;;;3.70;2.53;;;23.00;99.90;;;;;;5064137;28;20218;-78
2022/05/19 07:55:55;;;;;;;4.63;2.20;;;22.80;99.90;;;;;;5058303;28;20195;-78
2022/05/19 07:58:22;;;;;;;2.50;2.00;;;22.90;99.90;;;;;;5062612;28;20229;-79
2022/05/19 08:00:51;;;;;;;3.60;2.50;;;23.00;99.90;;;;;;5062233;28;20234;-78
2022/05/19 08:03:19;;;;;;;4.57;2.40;;;22.90;99.90;;;;;;5062083;28;20272;-78
2022/05/19 08:05:46;;;;;;;4.40;2.50;;;22.90;99.90;;;;;;5062554;28;20707;-77
2022/05/19 08:08:13;;;;;;;5.00;2.55;;;23.00;99.90;;;;;;5061475;28;20222;-76
2022/05/19 08:10:41;;;;;;;6.43;2.83;;;23.00;99.90;;;;;;5062934;28;20198;-77
2022/05/19 08:15:53;;;;;;;4.97;2.65;;;23.70;99.90;;;;;;5072207;28;20244;-77
2022/05/19 08:18:22;;;;;;;3.05;2.67;;;24.40;99.90;;;;;;5064700;28;20226;-77
2022/05/19 08:20:51;;;;;;;2.95;2.40;;;24.80;99.90;;;;;;5058834;28;20198;-77
2022/05/19 08:23:21;;;;;;;3.05;2.42;;;25.00;99.90;;;;;;5063212;28;20588;-77
2022/05/19 08:25:50;;;;;;;3.28;2.33;;;25.10;99.90;;;;;;5057875;28;20206;-77
2022/05/19 08:28:18;;;;;;;4.15;2.72;;;25.10;99.90;;;;;;5059511;28;20228;-76
2022/05/19 08:30:47;;;;;;;3.13;2.53;;;24.80;99.90;;;;;;5058687;28;20190;-78
2022/05/19 08:33:14;;;;;;;4.82;2.65;;;24.80;99.90;;;;;;5060464;28;20763;-76
2022/05/19 08:35:41;;;;;;;3.80;2.40;;;24.50;99.90;;;;;;5058542;28;20269;-78
2022/05/19 08:38:08;;;;;;;3.88;2.90;;;24.40;99.90;;;;;;5058891;28;20289;-78
2022/05/19 08:40:41;;;;;;;6.13;2.50;;;24.40;99.90;;;;;;5058575;28;20198;-77
2022/05/19 08:43:11;;;;;;;3.53;2.67;;;24.70;99.90;;;;;;5058659;28;20764;-79
2022/05/19 08:45:43;;;;;;;7.90;2.92;;;24.60;99.90;;;;;;5061921;28;20202;-78
2022/05/19 08:48:15;;;;;;;6.18;2.65;;;24.40;99.90;;;;;;5060662;28;20709;-78
2022/05/19 08:50:48;;;;;;;5.88;2.60;;;24.20;99.90;;;;;;5062004;28;20256;-78
2022/05/19 08:53:15;;;;;;;5.82;2.78;;;24.10;99.90;;;;;;5062230;28;20625;-78
2022/05/19 08:55:45;;;;;;;2.42;2.10;;;24.10;99.90;;;;;;5064628;28;20195;-78
2022/05/19 08:58:42;;;;;;;9.00;2.75;;;24.30;99.90;;;;;;5067735;28;20228;-78
2022/05/19 09:01:15;;;;;;;3.47;2.55;;;24.60;99.90;;;;;;5067270;28;20206;-78
2022/05/19 09:03:53;;;;;;;6.55;2.88;;;24.80;99.90;;;;;;5060588;28;20308;-78
2022/05/19 09:06:34;;;;;;;2.83;2.50;;;24.70;99.90;;;;;;5072315;28;20194;-78
2022/05/19 09:09:19;;;;;;;6.05;2.70;;;24.90;99.90;;;;;;5068250;28;20221;-78
2022/05/19 09:11:54;;;;;;;3.28;2.50;;;24.90;99.90;;;;;;5066534;28;20198;-78
2022/05/19 09:14:26;;;;;;;5.78;3.17;;;24.90;99.90;;;;;;5044902;28;20295;-77
2022/05/19 09:17:00;;;;;;;5.70;3.20;;;24.90;99.90;;;;;;5046202;28;20204;-78
2022/05/19 09:19:34;;;;;;;3.90;2.50;;;25.00;99.90;;;;;;5043660;28;20692;-78
2022/05/19 09:22:06;;;;;;;3.28;2.78;;;25.20;99.90;;;;;;5040006;28;20191;-78
2022/05/19 09:24:33;;;;;;;4.63;2.72;;;25.20;99.90;;;;;;5050174;28;20223;-77
2022/05/19 09:27:01;;;;;;;4.15;3.03;;;25.20;99.90;;;;;;5048072;28;20801;-77
2022/05/19 09:29:36;;;;;;;4.55;2.60;;;25.20;99.90;;;;;;5063555;28;20779;-77
2022/05/19 09:32:13;;;;;;;3.85;2.95;;;25.10;99.90;;;;;;5063796;28;20219;-77
2022/05/19 09:34:42;;;;;;;4.55;3.05;;;25.20;99.90;;;;;;5046266;28;20677;-78
2022/05/19 09:37:14;;;;;;;2.85;2.40;;;25.30;99.90;;;;;;5044913;28;20207;-78
2022/05/19 09:39:52;;;;;;;3.70;2.95;;;25.60;99.90;;;;;;5055058;28;20215;-78
2022/05/19 09:42:24;;;;;;;3.78;2.67;;;25.70;99.90;;;;;;5055613;28;20570;-79
2022/05/19 09:44:57;;;;;;;2.55;2.20;;;25.80;99.90;;;;;;5054040;28;20191;-78
2022/05/19 09:47:31;;;;;;;5.63;2.85;;;25.80;99.90;;;;;;5058337;28;20202;-77
2022/05/19 09:50:10;;;;;;;4.43;2.45;;;25.90;99.90;;;;;;5052324;28;20215;-77
2022/05/19 09:52:41;;;;;;;4.50;2.70;;;26.10;99.90;;;;;;5057478;28;20242;-77
2022/05/19 09:55:10;;;;;;;3.67;2.83;;;26.20;99.90;;;;;;5054410;28;20630;-77
2022/05/19 09:57:44;;;;;;;4.00;2.30;;;26.10;99.90;;;;;;5054099;28;20194;-78
2022/05/19 10:00:25;;;;;;;5.35;2.88;;;26.20;99.90;;;;;;5061429;28;20515;-76
2022/05/19 10:02:56;;;;;;;2.92;2.63;;;26.10;99.90;;;;;;5055780;28;20697;-77
2022/05/19 10:05:33;;;;;;;2.97;2.67;;;26.00;99.90;;;;;;5055577;28;20223;-78
2022/05/19 10:08:05;;;;;;;4.82;2.67;;;26.10;99.90;;;;;;5048377;28;20227;-78
2022/05/19 10:10:35;;;;;;;3.15;2.40;;;26.40;99.90;;;;;;5051304;28;20222;-77
2022/05/19 10:13:08;;;;;;;3.83;2.40;;;26.60;99.90;;;;;;5053851;28;20229;-79
2022/05/19 10:15:58;;;;;;;2.58;2.15;;;26.90;99.90;;;;;;5052108;28;20282;-78
2022/05/19 10:18:56;;;;;;;4.68;2.33;;;26.80;99.90;;;;;;5054402;28;20218;-78
2022/05/19 10:21:37;;;;;;;2.60;2.40;;;26.50;99.90;;;;;;5063876;28;20241;-78
2022/05/19 10:24:26;;;;;;;4.10;2.60;;;26.60;99.90;;;;;;5064275;28;20214;-77
2022/05/19 10:32:49;;;;;;;3.15;2.30;;;26.70;99.90;;;;;;5060949;28;20243;-77
2022/05/19 10:35:22;;;;;;;2.38;2.17;;;26.70;99.90;;;;;;5059507;28;20209;-77
2022/05/19 10:38:01;;;;;;;5.53;2.50;;;26.70;99.90;;;;;;5063416;28;20202;-76
2022/05/19 10:40:55;;;;;;;3.63;2.38;;;26.70;99.90;;;;;;5059482;28;20689;-77
2022/05/19 10:43:39;;;;;;;2.83;2.50;;;26.50;99.90;;;;;;5062862;28;20218;-77
2022/05/19 10:46:08;;;;;;;2.97;2.65;;;26.70;99.90;;;;;;5061434;28;20699;-76
2022/05/19 10:49:04;;;;;;;2.60;2.35;;;26.70;99.90;;;;;;5062659;28;20222;-77
2022/05/19 10:51:47;;;;;;;2.35;2.15;;;26.90;99.90;;;;;;5059090;28;20194;-77
2022/05/19 10:54:41;;;;;;;3.22;2.17;;;27.10;99.90;;;;;;5063410;28;20252;-76
2022/05/19 10:57:51;;;;;;;3.25;2.10;;;27.20;99.90;;;;;;5065699;28;20206;-76
2022/05/19 11:00:26;;;;;;;2.70;2.25;;;27.40;99.90;;;;;;5002065;28;20222;-77
2022/05/19 11:03:20;;;;;;;4.20;2.40;;;27.50;99.90;;;;;;5044666;28;20201;-77
2022/05/19 11:06:00;;;;;;;3.25;2.58;;;27.40;99.90;;;;;;5057496;28;20225;-76
2022/05/19 11:08:44;;;;;;;2.55;2.35;;;27.30;99.90;;;;;;5064115;28;20214;-77
2022/05/19 11:11:18;;;;;;;3.08;2.38;;;27.30;99.90;;;;;;5060682;28;20214;-77
2022/05/19 11:14:02;;;;;;;3.10;2.58;;;27.50;99.90;;;;;;5060074;28;20305;-76
2022/05/19 11:16:51;;;;;;;3.92;2.35;;;27.60;99.90;;;;;;5048088;28;20222;-77
2022/05/19 11:19:26;;;;;;;3.47;2.40;;;27.60;99.90;;;;;;5048562;28;20258;-76
2022/05/19 11:21:59;;;;;;;3.75;2.22;;;27.50;99.90;;;;;;5065648;28;20201;-77
2022/05/19 11:24:32;;;;;;;4.32;2.33;;;27.50;99.90;;;;;;5058960;28;20902;-76
2022/05/19 11:27:05;;;;;;;4.63;2.50;;;27.40;99.90;;;;;;5042535;28;20202;-76
2022/05/19 11:29:38;;;;;;;3.40;2.40;;;27.50;99.90;;;;;;5042801;28;21857;-77
2022/05/19 11:32:10;;;;;;;2.88;2.53;;;27.60;99.90;;;;;;5048461;28;20199;-77
2022/05/19 11:34:44;;;;;;;3.95;2.28;;;27.70;99.90;;;;;;5047514;28;20750;-76
2022/05/19 11:37:23;;;;;;;3.00;2.30;;;27.80;99.90;;;;;;5046626;28;20235;-76
2022/05/19 11:40:00;;;;;;;2.45;2.22;;;27.80;99.90;;;;;;5047681;28;20234;-76
2022/05/19 11:42:38;;;;;;;4.72;2.45;;;27.90;99.90;;;;;;5047272;28;20233;-76
2022/05/19 11:45:09;;;;;;;3.85;2.10;;;27.90;99.90;;;;;;5053811;28;20241;-76
2022/05/19 11:56:11;;;;;;;2.97;2.40;;;27.90;99.90;;;;;;5045551;28;20230;-77
2022/05/19 11:58:39;;;;;;;3.17;2.50;;;27.90;99.90;;;;;;5047676;28;20218;-77
2022/05/19 12:01:11;;;;;;;2.30;2.08;;;28.00;99.90;;;;;;5046389;28;20226;-77
2022/05/19 12:03:44;;;;;;;3.20;1.98;;;28.20;99.90;;;;;;5046488;28;20273;-77
2022/05/19 12:06:28;;;;;;;5.63;2.45;;;28.40;99.90;;;;;;5045468;28;20306;-77
2022/05/19 12:09:02;;;;;;;2.53;2.33;;;28.50;99.90;;;;;;5043316;28;20260;-76
2022/05/19 12:11:37;;;;;;;3.05;2.28;;;28.60;99.90;;;;;;5045559;28;20675;-76
2022/05/19 12:14:15;;;;;;;2.45;2.25;;;28.50;99.90;;;;;;5044795;28;20631;-77
2022/05/19 12:16:49;;;;;;;2.80;2.40;;;28.60;99.90;;;;;;5058173;28;20636;-77
2022/05/19 12:19:33;;;;;;;3.10;2.42;;;28.70;99.90;;;;;;5063807;28;20222;-76
2022/05/19 12:22:02;;;;;;;2.40;2.20;;;28.80;99.90;;;;;;5035120;28;20218;-77
2022/05/19 12:24:37;;;;;;;2.50;2.30;;;28.70;99.90;;;;;;5037957;28;20195;-76
2022/05/19 12:27:12;;;;;;;3.10;2.10;;;28.60;99.90;;;;;;5038658;28;20253;-78
2022/05/19 12:29:44;;;;;;;2.60;2.40;;;28.60;99.90;;;;;;5042962;28;20324;-77
2022/05/19 12:32:24;;;;;;;2.97;2.22;;;28.70;99.90;;;;;;5038058;28;20962;-75
2022/05/19 12:34:55;;;;;;;2.97;2.25;;;28.70;99.90;;;;;;5042093;28;20732;-77
2022/05/19 12:37:43;;;;;;;2.63;2.30;;;28.70;99.90;;;;;;5042077;28;20623;-76
2022/05/19 12:40:29;;;;;;;2.40;2.20;;;28.80;99.90;;;;;;5037857;28;20222;-76
2022/05/19 12:43:29;;;;;;;2.58;2.33;;;28.80;99.90;;;;;;5052621;28;20202;-76
2022/05/19 12:45:58;;;;;;;4.15;2.30;;;28.80;99.90;;;;;;5047845;28;20736;-77
2022/05/19 12:48:48;;;;;;;3.38;2.33;;;29.00;99.90;;;;;;5053494;28;20594;-77
2022/05/19 12:51:19;;;;;;;6.22;2.65;;;28.90;99.90;;;;;;5058715;28;20282;-76
2022/05/19 12:54:02;;;;;;;4.80;2.53;;;28.90;99.90;;;;;;5053577;28;20865;-77
2022/05/19 12:57:22;;;;;;;3.30;2.30;;;28.80;99.90;;;;;;5055799;28;20386;-76
2022/05/19 12:59:56;;;;;;;4.93;2.40;;;28.70;99.90;;;;;;5051657;28;20226;-76
2022/05/19 13:02:32;;;;;;;4.63;2.35;;;28.80;99.90;;;;;;5044303;28;20792;-76
2022/05/19 13:05:04;;;;;;;2.85;2.42;;;28.80;99.90;;;;;;5039394;28;20281;-77
2022/05/19 13:07:36;;;;;;;4.07;2.63;;;28.80;99.90;;;;;;5053580;28;20218;-76
2022/05/19 13:10:09;;;;;;;4.38;2.63;;;28.90;99.90;;;;;;5053587;28;20242;-77
2022/05/19 13:12:47;;;;;;;3.55;2.67;;;28.60;99.90;;;;;;5066209;28;20214;-76
2022/05/19 13:15:27;;;;;;;3.50;2.55;;;28.50;99.90;;;;;;5060904;28;20668;-76
2022/05/19 13:17:55;;;;;;;3.65;2.65;;;28.60;99.90;;;;;;5047198;28;20195;-76
2022/05/19 13:20:26;;;;;;;4.25;2.85;;;28.70;99.90;;;;;;5043777;28;20282;-76
2022/05/19 13:22:59;;;;;;;3.45;2.67;;;28.60;99.90;;;;;;5048597;28;20202;-76
2022/05/19 13:25:27;;;;;;;2.67;2.25;;;28.40;99.90;;;;;;5048588;28;20210;-76
2022/05/19 13:30:57;;;;;;;2.47;2.20;;;28.50;99.90;;;;;;5063227;28;20218;-77
2022/05/19 13:33:26;;;;;;;2.97;2.40;;;28.50;99.90;;;;;;5056776;28;20264;-76